Weather at Double Eagle II Airport

Public forecast

Using degrees Fahrenheit for public forecast. Weather courtesy of forecast.io.

Current aviation weather report (METAR) for Double Eagle II Airport

Retrieved 2020/09/27 09:55 UTC (1 hour ago):

KAEG 270955Z AUTO 23006KT 10SM CLR 11/M04 A3006 RMK AO2 T01111045

Aviation forecast (TAF) for Double Eagle II Airport

Retrieved 2020/09/27 06:22 UTC (5 hours ago):

TAF KAEG 270520Z 2706/2806 30010KT P6SM SCT250 FM271700 29014G22KT P6SM FEW250 FM271900 29020G28KT P6SM FEW250 FM280200 31011KT P6SM FEW250